Latest Weather Observations for Lake Grace

IDW60801

Issued at 8:05 am WST Saturday 25 October 2014 (issued every 30 minutes, with the page automatically refreshed every 10 minutes)

About weather observations | Map of weather stations | Latest weather observations for WA | Other Formats
Station Details ID: 010911 Name: LAKE GRACE Lat: -33.10 Lon: 118.46 Height: 286.0 m
Data from the previous 72 hours. | See also: Recent months at Lake Grace
Date/Time
WST
Temp
°C
App
Temp
°C
Dew
Point
Rel
Hum
%
Delta-T
°C
Wind Press
QNH
hPa
Press
MSL
hPa
Rain
since 9 am
mm
Dir
 
Spd
km/h
Gust
km/h
Spd
kts
Gust
kts
25/08:00am 15.2 14.4 14.1 93 0.6 WSW 11 19 6 10 1015.5 1015.0 0.0
25/07:30am 14.3 13.3 13.5 95 0.5 WSW 11 17 6 9 1015.5 1015.0 0.0
25/07:00am 13.7 13.3 13.1 96 0.3 WSW 7 13 4 7 1015.3 1014.8 0.0
25/06:30am 13.5 12.7 12.9 96 0.3 SSW 9 11 5 6 1015.2 1014.7 0.0
25/06:00am 13.6 13.2 13.0 96 0.3 S 7 13 4 7 1015.0 1014.5 0.0
25/05:30am 13.1 12.7 12.3 95 0.4 SSE 6 9 3 5 1014.8 1014.3 0.0
25/05:00am 12.6 12.0 11.8 95 0.4 S 6 7 3 4 1014.7 1014.2 0.0
25/04:30am 13.1 12.6 12.2 94 0.5 S 6 9 3 5 1014.6 1014.1 0.0
25/04:00am 13.4 13.0 12.5 94 0.5 SE 6 9 3 5 1014.2 1013.7 0.0
25/03:30am 13.5 13.2 12.6 94 0.5 SSE 6 7 3 4 1014.1 1013.6 0.0
25/03:00am 13.5 13.1 12.4 93 0.6 S 6 9 3 5 1014.1 1013.6 0.0
25/02:30am 13.6 13.1 12.5 93 0.6 S 7 9 4 5 1013.9 1013.4 0.0
25/02:00am 13.7 13.3 12.4 92 0.7 SW 6 9 3 5 1014.0 1013.5 0.0
25/01:30am 13.8 13.2 12.4 91 0.8 ESE 7 11 4 6 1013.8 1013.3 0.0
25/01:00am 14.2 13.4 12.8 91 0.8 SE 9 13 5 7 1014.0 1013.5 0.0
25/12:30am 14.5 14.1 12.9 90 0.9 SSE 7 9 4 5 1014.3 1013.8 0.0
25/12:00am 14.7 13.9 12.9 89 1.0 S 9 13 5 7 1014.8 1014.3 0.0
 
Date/Time
WST
Temp
°C
App
Temp
°C
Dew
Point
Rel
Hum
%
Delta-T
°C
Wind Press
QNH
hPa
Press
MSL
hPa
Rain
since 9 am
mm
Dir
 
Spd
km/h
Gust
km/h
Spd
kts
Gust
kts
24/11:30pm 15.2 14.5 13.1 87 1.2 ESE 9 11 5 6 1014.7 1014.2 0.0
24/11:00pm 15.4 14.7 13.1 86 1.3 ESE 9 13 5 7 1014.9 1014.4 0.0
24/10:30pm 15.7 14.9 13.0 84 1.5 SE 9 15 5 8 1015.0 1014.5 0.0
24/10:00pm 16.2 14.9 12.4 78 2.1 SE 11 15 6 8 1015.1 1014.6 0.0
24/09:30pm 18.0 17.3 12.0 68 3.4 SE 7 11 4 6 1014.9 1014.4 0.0
24/09:00pm 18.7 18.1 11.8 64 3.9 SE 6 7 3 4 1014.8 1014.3 0.0
24/08:30pm 19.3 18.8 12.1 63 4.1 ENE 6 7 3 4 1014.9 1014.4 0.0
24/08:00pm 20.2 19.7 12.2 60 4.5 SSE 6 7 3 4 1014.8 1014.3 0.0
24/07:30pm 21.3 20.7 11.6 54 5.5 ESE 6 7 3 4 1014.6 1014.1 0.0
24/07:00pm 22.4 21.1 9.9 45 6.9 WSW 7 9 4 5 1014.5 1014.0 0.0
24/06:30pm 23.5 22.0 9.1 40 7.9 W 7 9 4 5 1014.5 1014.0 0.0
24/06:00pm 24.6 22.2 8.5 36 8.7 NW 11 15 6 8 1014.2 1013.7 0.0
24/05:30pm 24.8 22.0 8.7 36 8.8 NNW 13 19 7 10 1014.2 1013.7 0.0
24/05:00pm 25.9 22.7 8.4 33 9.6 NW 15 20 8 11 1014.0 1013.5 0.0
24/04:30pm 25.4 23.8 8.8 35 9.1 NW 7 13 4 7 1014.1 1013.6 0.0
24/04:00pm 24.9 22.7 9.2 37 8.6 NNW 11 19 6 10 1014.2 1013.7 0.0
24/03:30pm 25.3 23.4 9.2 36 8.9 NW 9 20 5 11 1014.5 1014.0 0.0
24/03:00pm 24.8 22.0 8.7 36 8.8 NW 13 20 7 11 1014.8 1014.3 0.0
24/02:30pm 24.9 22.5 10.0 39 8.3 NW 13 19 7 10 1014.9 1014.4 0.0
24/02:00pm 24.6 23.0 10.1 40 8.1 NNW 9 19 5 10 1015.2 1014.7 0.0
24/01:30pm 23.2 20.7 9.6 42 7.5 NNW 13 30 7 16 1015.6 1015.1 0.0
24/01:00pm 22.7 21.3 10.8 47 6.7 N 9 13 5 7 1016.0 1015.6 0.0
24/12:30pm 23.5 21.3 10.9 45 7.1 N 13 28 7 15 1016.4 1016.0 0.0
24/12:00pm 21.8 19.6 10.9 50 6.1 N 13 20 7 11 1017.0 1016.5 0.0
24/11:30am 21.1 19.1 10.3 50 5.9 N 11 15 6 8 1017.4 1016.9 0.0
24/11:00am 21.0 19.8 11.6 55 5.3 ENE 9 17 5 9 1017.9 1017.4 0.0
24/10:30am 19.3 17.5 10.8 58 4.7 NE 11 22 6 12 1018.1 1017.6 0.0
24/10:00am 18.8 16.7 11.1 61 4.2 ENE 13 20 7 11 1018.5 1018.0 0.0
24/09:30am 17.5 15.0 10.9 65 3.6 ENE 15 20 8 11 1018.4 1017.9 0.0
24/09:00am 16.9 14.8 11.2 69 3.1 ENE 13 20 7 11 1018.9 1018.5 0.0
24/08:30am 15.9 14.2 11.1 73 2.6 ENE 11 17 6 9 1018.7 1018.2 0.0
24/08:00am 15.1 12.9 10.9 76 2.3 E 13 19 7 10 1018.9 1018.5 0.0
24/07:30am 14.0 12.6 11.0 82 1.6 ESE 9 15 5 8 1018.9 1018.5 0.0
24/07:00am 13.0 11.6 10.9 87 1.1 ESE 9 17 5 9 1018.9 1018.5 0.0
24/06:30am 12.0 10.1 10.6 91 0.7 ESE 11 17 6 9 1018.7 1018.2 0.0
24/06:00am 10.8 10.0 9.7 93 0.6 ESE 4 7 2 4 1018.7 1018.2 0.0
24/05:30am 10.0 8.4 8.9 93 0.6 SE 7 9 4 5 1018.3 1017.8 0.0
24/05:00am 10.1 8.7 9.0 93 0.6 ESE 6 7 3 4 1018.4 1017.9 0.0
24/04:30am 10.1 8.7 9.0 93 0.6 SSE 6 7 3 4 1018.3 1017.8 0.0
24/04:00am 10.2 10.0 9.0 92 0.6 CALM 0 0 0 0 1018.3 1017.8 0.0
24/03:30am 10.4 9.1 9.2 92 0.6 SSE 6 7 3 4 1018.1 1017.6 0.0
24/03:00am 10.6 9.1 9.2 91 0.7 SSE 7 9 4 5 1017.8 1017.3 0.0
24/02:30am 10.9 9.5 9.5 91 0.7 SE 7 11 4 6 1017.9 1017.4 0.0
24/02:00am 11.1 9.3 9.5 90 0.8 SSE 9 11 5 6 1018.0 1017.5 0.0
24/01:30am 11.5 9.4 9.8 89 0.9 S 11 19 6 10 1017.9 1017.4 0.0
24/01:00am 11.6 9.9 9.9 89 0.9 S 9 15 5 8 1018.1 1017.6 0.0
24/12:30am 12.1 10.5 10.2 88 1.0 SSE 9 13 5 7 1018.1 1017.6 0.0
24/12:00am 12.4 10.4 10.3 87 1.1 S 11 17 6 9 1018.3 1017.8 0.0
 
Date/Time
WST
Temp
°C
App
Temp
°C
Dew
Point
Rel
Hum
%
Delta-T
°C
Wind Press
QNH
hPa
Press
MSL
hPa
Rain
since 9 am
mm
Dir
 
Spd
km/h
Gust
km/h
Spd
kts
Gust
kts
23/11:30pm 12.8 10.5 10.3 85 1.3 S 13 19 7 10 1018.2 1017.7 0.0
23/11:00pm 13.1 11.1 10.3 83 1.5 S 11 15 6 8 1018.4 1017.9 0.0
23/10:30pm 13.6 11.7 10.4 81 1.7 S 11 17 6 9 1018.3 1017.8 0.0
23/10:00pm 14.0 10.6 10.6 80 1.8 S 19 26 10 14 1018.1 1017.6 0.0
23/09:30pm 14.5 11.1 10.7 78 2.0 S 19 26 10 14 1018.2 1017.7 0.0
23/09:00pm 15.0 12.4 10.6 75 2.3 S 15 24 8 13 1018.3 1017.8 0.0
23/08:30pm 15.7 12.8 11.1 74 2.5 S 17 26 9 14 1018.1 1017.6 0.0
23/08:00pm 15.9 13.8 11.1 73 2.6 S 13 19 7 10 1017.6 1017.1 0.0
23/07:30pm 16.7 13.9 11.2 70 3.0 S 17 26 9 14 1017.1 1016.6 0.0
23/07:00pm 17.3 14.9 11.3 68 3.3 S 15 22 8 12 1016.6 1016.2 0.0
23/06:30pm 18.3 15.0 11.6 65 3.7 S 20 32 11 17 1016.1 1015.7 0.0
23/06:00pm 20.2 17.0 11.1 56 5.1 SW 19 30 10 16 1015.2 1014.7 0.0
23/05:30pm 21.3 17.5 11.1 52 5.7 WSW 22 35 12 19 1014.8 1014.3 0.0
23/05:00pm 21.9 18.7 11.9 53 5.7 WSW 20 32 11 17 1014.5 1014.0 0.0
23/04:30pm 21.3 18.4 12.2 56 5.2 WSW 19 30 10 16 1014.4 1013.9 0.0
23/04:00pm 21.6 17.9 11.6 53 5.6 WSW 22 37 12 20 1014.2 1013.7 0.0
23/03:30pm 22.2 19.4 13.3 57 5.2 WSW 20 35 11 19 1014.0 1013.5 0.0
23/03:00pm 22.1 18.0 11.5 51 6.0 WSW 24 35 13 19 1013.8 1013.3 0.0
23/02:30pm 22.6 18.8 12.3 52 5.9 W 24 37 13 20 1013.7 1013.2 0.0
23/02:00pm 22.9 18.4 11.3 48 6.6 W 26 37 14 20 1013.4 1012.9 0.0
23/01:30pm 23.1 18.5 9.8 43 7.3 W 24 39 13 21 1013.2 1012.7 0.0
23/01:00pm 22.7 18.2 10.2 45 6.9 W 24 35 13 19 1013.2 1012.7 0.0
23/12:30pm 22.7 17.3 9.5 43 7.2 W 28 43 15 23 1013.2 1012.7 0.0
23/12:00pm 22.3 17.0 9.8 45 6.9 WNW 28 37 15 20 1013.3 1012.8 0.0
23/11:40am 22.2 16.9 9.7 45 6.8 WNW 28 46 15 25 1013.3 1012.8 0.0
23/11:30am 22.3 16.2 9.8 45 6.9 WNW 32 46 17 25 1013.4 1012.9 0.0
23/11:03am 21.1 15.8 10.0 49 6.1 W 28 46 15 25 1013.5 1013.0 0.0
23/11:00am 21.4 15.8 10.3 49 6.1 W 30 44 16 24 1013.6 1013.1 0.0
23/10:30am 20.7 15.2 10.5 52 5.6 WNW 30 41 16 22 1013.6 1013.1 0.0
23/10:00am 19.4 13.9 10.4 56 4.9 W 30 43 16 23 1013.8 1013.3 0.0
23/09:30am 19.2 14.2 11.0 59 4.5 W 28 43 15 23 1013.8 1013.3 0.0
23/09:00am 18.9 14.3 12.4 66 3.7 WNW 28 41 15 22 1013.7 1013.2 2.4
23/08:30am 17.9 13.4 12.6 71 3.0 WNW 28 37 15 20 1013.6 1013.1 2.4
23/08:00am 17.3 14.0 12.8 75 2.5 WNW 22 32 12 17 1013.4 1012.9 2.4
23/07:30am 16.6 13.3 12.8 78 2.1 NW 22 35 12 19 1013.4 1012.9 2.4
23/07:00am 15.6 12.8 13.1 85 1.4 NW 20 33 11 18 1012.9 1012.5 2.4
23/06:30am 14.8 12.6 13.2 90 0.9 NNW 17 30 9 16 1012.6 1012.1 2.4
23/06:00am 14.2 11.8 12.8 91 0.8 NW 17 26 9 14 1012.6 1012.1 2.4
23/05:30am 14.1 11.4 12.8 92 0.7 NW 19 26 10 14 1012.6 1012.1 2.4
23/05:00am 14.1 12.1 12.7 91 0.8 NW 15 26 8 14 1012.3 1011.8 2.4
23/04:30am 14.2 11.8 12.6 90 0.9 NW 17 22 9 12 1012.5 1012.0 2.4
23/04:00am 14.0 11.9 12.4 90 0.9 NNW 15 19 8 10 1012.2 1011.7 2.4
23/03:30am 14.4 13.0 12.1 86 1.3 NNW 11 17 6 9 1011.7 1011.2 2.4
23/03:00am 14.9 12.7 12.2 84 1.5 WNW 15 22 8 12 1011.8 1011.3 2.2
23/02:30am 14.4 11.8 12.1 86 1.3 WNW 17 22 9 12 1012.1 1011.6 2.2
23/02:00am 14.7 11.8 12.4 86 1.3 WNW 19 28 10 15 1012.1 1011.6 2.2
23/01:30am 15.0 11.3 12.7 86 1.3 WNW 24 35 13 19 1012.0 1011.5 2.2
23/01:00am 15.4 12.8 13.2 87 1.2 WNW 19 26 10 14 1011.8 1011.3 2.2
23/12:30am 15.9 13.7 13.4 85 1.4 NW 17 28 9 15 1011.7 1011.2 2.2
23/12:00am 16.5 13.8 13.4 82 1.8 WNW 20 28 11 15 1012.0 1011.5 2.2
 
Date/Time
WST
Temp
°C
App
Temp
°C
Dew
Point
Rel
Hum
%
Delta-T
°C
Wind Press
QNH
hPa
Press
MSL
hPa
Rain
since 9 am
mm
Dir
 
Spd
km/h
Gust
km/h
Spd
kts
Gust
kts
22/11:30pm 16.9 14.5 13.8 82 1.8 WNW 19 26 10 14 1011.8 1011.3 2.2
22/11:00pm 17.4 15.7 13.7 79 2.1 W 15 22 8 12 1011.7 1011.2 2.2
22/10:30pm 17.8 14.5 14.1 79 2.1 WNW 24 41 13 22 1012.1 1011.6 2.2
22/10:00pm 18.4 15.9 14.1 76 2.5 W 20 30 11 16 1012.0 1011.5 2.2
22/09:30pm 19.0 16.6 14.5 75 2.6 W 20 35 11 19 1011.8 1011.3 2.2
22/09:00pm 19.4 18.6 16.1 81 2.0 W 15 26 8 14 1011.2 1010.7 2.2
22/08:30pm 20.1 19.0 15.3 74 2.9 WNW 15 20 8 11 1010.9 1010.4 2.2
22/08:00pm 21.3 20.4 14.9 67 3.8 E 13 19 7 10 1010.3 1009.8 2.2
22/07:30pm 21.1 21.1 15.2 69 3.5 E 9 15 5 8 1010.6 1010.1 2.2
22/07:00pm 21.2 19.3 15.3 69 3.6 E 19 26 10 14 1009.0 1008.5 1.8
22/06:30pm 22.1 20.1 15.0 64 4.3 E 19 32 10 17 1010.0 1009.5 1.6
22/06:00pm 23.9 21.5 13.7 53 6.0 ENE 19 32 10 17 1009.7 1009.1 1.6
22/05:39pm 24.1 20.2 14.5 55 5.8 E 28 44 15 24 1010.3 1009.8 1.6
22/05:30pm 23.1 23.5 16.2 65 4.2 NNW 9 13 5 7 1010.7 1010.2 1.6
22/05:00pm 27.7 23.2 11.3 36 9.5 NE 26 44 14 24 1009.7 1009.1 0.2
22/04:30pm 27.9 23.9 11.9 37 9.4 E 24 37 13 20 1008.5 1008.0 0.0
22/04:00pm 28.7 24.7 11.7 35 10.0 E 24 43 13 23 1009.6 1009.0 0.0
22/03:30pm 30.2 26.9 11.7 32 10.9 ENE 20 37 11 20 1010.8 1010.3 0.0
22/03:00pm 29.8 25.7 11.3 32 10.8 ENE 24 35 13 19 1011.7 1011.2 0.0
22/02:30pm 29.4 25.7 11.5 33 10.5 ENE 22 37 12 20 1012.2 1011.7 0.0
22/02:00pm 28.9 25.2 12.8 37 9.6 ENE 24 33 13 18 1013.0 1012.6 0.0
22/01:30pm 28.2 25.6 13.7 41 8.7 ENE 20 35 11 19 1014.0 1013.5 0.0
22/01:00pm 28.0 25.9 14.6 44 8.2 ENE 19 30 10 16 1014.8 1014.3 0.0
22/12:30pm 27.0 24.8 14.4 46 7.6 ENE 19 28 10 15 1015.4 1014.9 0.0
22/12:00pm 25.5 22.8 13.4 47 7.2 ENE 20 30 11 16 1016.1 1015.7 0.0
22/11:30am 25.0 22.6 13.9 50 6.6 NNE 19 28 10 15 1017.0 1016.5 0.0
22/11:00am 23.7 21.6 14.7 57 5.4 ENE 19 32 10 17 1017.6 1017.1 0.0
22/10:30am 21.4 18.5 14.1 63 4.3 ENE 22 30 12 16 1017.9 1017.4 0.0
22/10:00am 20.1 17.7 13.8 67 3.7 ENE 19 32 10 17 1018.7 1018.2 0.0
22/09:30am 18.1 15.3 13.2 73 2.8 ENE 20 28 11 15 1019.1 1018.7 0.0
22/09:00am 17.2 13.9 12.9 76 2.4 ENE 22 33 12 18 1019.5 1019.1 0.0
22/08:30am 15.5 12.0 12.3 81 1.8 E 22 35 12 19 1019.6 1019.2 0.0

Other Formats:

Comma delimited format used in spreadsheet applications
http://www.bom.gov.au/fwo/IDW60801/IDW60801.95637.axf

JavaScript Object Notation format (JSON) in row-major order
http://www.bom.gov.au/fwo/IDW60801/IDW60801.95637.json